createdAt,value
2023-02-27T00:00:00.587Z,1.00
2023-02-27T00:00:33.077Z,1.00
2023-02-27T00:01:05.045Z,1.00
2023-02-27T00:01:36.867Z,1.00
2023-02-27T00:02:08.762Z,1.00
2023-02-27T00:02:45.486Z,1.00
2023-02-27T00:03:17.332Z,1.00
2023-02-27T00:03:49.309Z,1.00
2023-02-27T00:04:21.130Z,1.00
2023-02-27T00:04:54.565Z,1.00
2023-02-27T00:05:26.369Z,1.00
2023-02-27T00:05:58.380Z,1.00
2023-02-27T00:06:30.160Z,1.00
2023-02-27T00:07:01.964Z,1.00
2023-02-27T00:07:33.733Z,1.00
2023-02-27T00:08:05.506Z,1.00
2023-02-27T00:08:37.366Z,1.00
2023-02-27T00:09:09.199Z,1.00
2023-02-27T00:09:42.102Z,1.00
2023-02-27T00:10:15.196Z,1.00
2023-02-27T00:10:46.962Z,1.00
2023-02-27T00:11:18.878Z,1.00
2023-02-27T00:11:50.615Z,1.00
2023-02-27T00:12:22.397Z,1.00
2023-02-27T00:12:54.314Z,1.00
2023-02-27T00:13:26.072Z,1.00
2023-02-27T00:13:57.968Z,1.00
2023-02-27T00:14:30.045Z,1.00
2023-02-27T00:15:01.804Z,1.00
2023-02-27T00:15:33.993Z,1.00
2023-02-27T00:16:06.500Z,1.00
2023-02-27T00:16:38.240Z,1.00
2023-02-27T00:17:09.961Z,1.00
2023-02-27T00:17:42.653Z,1.00
2023-02-27T00:18:14.441Z,1.00
2023-02-27T00:18:46.222Z,1.00
2023-02-27T00:19:18.035Z,1.00
2023-02-27T00:19:49.771Z,1.00
2023-02-27T00:20:25.798Z,1.00
2023-02-27T00:20:57.616Z,1.00
2023-02-27T00:21:29.372Z,1.00
2023-02-27T00:22:01.104Z,1.00
2023-02-27T00:22:32.975Z,1.00
2023-02-27T00:23:09.528Z,1.00
2023-02-27T00:23:41.335Z,1.00
2023-02-27T00:24:13.942Z,1.00
2023-02-27T00:24:45.654Z,1.33
2023-02-27T00:25:17.529Z,2.00
2023-02-27T00:25:50.070Z,2.00
2023-02-27T00:26:21.916Z,2.00
2023-02-27T00:26:53.698Z,2.00
2023-02-27T00:27:25.490Z,2.00
2023-02-27T00:27:57.498Z,2.00
2023-02-27T00:28:29.268Z,2.00
2023-02-27T00:29:01.018Z,2.00
2023-02-27T00:29:32.753Z,2.00
2023-02-27T00:30:10.585Z,2.00
2023-02-27T00:30:42.488Z,2.00
2023-02-27T00:31:14.527Z,2.00
2023-02-27T00:31:46.384Z,2.00
2023-02-27T00:32:18.272Z,2.00
2023-02-27T00:32:50.064Z,2.00
2023-02-27T00:33:22.409Z,2.00
2023-02-27T00:33:54.225Z,2.00
2023-02-27T00:34:26.203Z,2.00
2023-02-27T00:34:57.989Z,2.00
2023-02-27T00:35:29.728Z,2.00
2023-02-27T00:36:03.105Z,2.00
2023-02-27T00:36:34.869Z,2.00
2023-02-27T00:37:06.680Z,2.00
2023-02-27T00:37:39.238Z,2.00
2023-02-27T00:38:11.012Z,2.00
2023-02-27T00:38:42.774Z,2.00
2023-02-27T00:39:15.910Z,2.00
2023-02-27T00:39:47.757Z,2.00
2023-02-27T00:40:19.861Z,2.00
2023-02-27T00:40:51.685Z,2.00
2023-02-27T00:41:23.484Z,2.00
2023-02-27T00:41:55.440Z,2.00
2023-02-27T00:42:28.703Z,2.00
2023-02-27T00:43:00.507Z,2.00
2023-02-27T00:43:32.240Z,2.00
2023-02-27T00:44:04.122Z,2.00
2023-02-27T00:44:35.918Z,2.00
2023-02-27T00:45:08.500Z,2.00
2023-02-27T00:45:40.283Z,2.00
2023-02-27T00:46:12.229Z,2.00
2023-02-27T00:46:44.119Z,2.00
2023-02-27T00:47:15.966Z,2.00
2023-02-27T00:47:48.248Z,2.00
2023-02-27T00:48:20.502Z,2.00
2023-02-27T00:48:52.331Z,2.00
2023-02-27T00:49:25.557Z,2.00
2023-02-27T00:49:57.332Z,2.00
2023-02-27T00:50:29.113Z,2.00
2023-02-27T00:51:00.952Z,2.00
2023-02-27T00:51:32.815Z,2.00
2023-02-27T00:52:04.762Z,2.67
2023-02-27T00:52:36.565Z,3.00
2023-02-27T00:53:08.775Z,3.00
2023-02-27T00:53:41.230Z,3.00
2023-02-27T00:54:13.033Z,3.00
2023-02-27T00:54:44.830Z,3.00
2023-02-27T00:55:16.617Z,3.00
2023-02-27T00:55:48.420Z,3.00
2023-02-27T00:56:20.226Z,3.00
2023-02-27T00:56:51.990Z,3.00
2023-02-27T00:57:23.753Z,3.00
2023-02-27T00:57:55.624Z,3.00
2023-02-27T00:58:27.492Z,3.00
2023-02-27T00:58:59.303Z,3.00
2023-02-27T00:59:31.113Z,3.00
2023-02-27T01:00:02.987Z,3.00
2023-02-27T01:00:34.799Z,3.00
2023-02-27T01:01:06.631Z,3.00
2023-02-27T01:01:38.449Z,3.00
2023-02-27T01:02:10.537Z,3.00
2023-02-27T01:02:42.350Z,3.00
2023-02-27T01:03:14.292Z,3.00
2023-02-27T01:03:46.060Z,3.00
2023-02-27T01:04:17.884Z,3.00
2023-02-27T01:04:49.690Z,3.00
2023-02-27T01:05:21.529Z,3.00
2023-02-27T01:05:53.297Z,3.00
2023-02-27T01:06:25.029Z,3.00
2023-02-27T01:06:56.768Z,3.00
2023-02-27T01:07:28.742Z,3.00
2023-02-27T01:08:00.588Z,3.00
2023-02-27T01:08:32.465Z,3.00
2023-02-27T01:09:04.383Z,3.00
2023-02-27T01:09:36.370Z,3.00
2023-02-27T01:10:10.639Z,3.00
2023-02-27T01:10:42.420Z,3.00
2023-02-27T01:11:14.323Z,3.00
2023-02-27T01:11:46.083Z,3.00
2023-02-27T01:12:17.966Z,3.00
2023-02-27T01:12:49.852Z,3.00
2023-02-27T01:13:22.340Z,3.00
2023-02-27T01:13:54.171Z,3.00
2023-02-27T01:14:26.734Z,3.00
2023-02-27T01:14:58.605Z,3.00
2023-02-27T01:15:30.408Z,3.00
2023-02-27T01:16:02.289Z,3.00
2023-02-27T01:16:34.170Z,3.00
2023-02-27T01:17:05.929Z,3.00
2023-02-27T01:17:37.665Z,3.00
2023-02-27T01:18:09.454Z,3.00
2023-02-27T01:18:41.868Z,3.00
2023-02-27T01:19:13.654Z,3.00
2023-02-27T01:19:45.509Z,3.00
2023-02-27T01:20:17.652Z,3.00
2023-02-27T01:20:53.975Z,3.00
2023-02-27T01:21:26.657Z,3.00
2023-02-27T01:21:58.714Z,3.00
2023-02-27T01:22:30.498Z,3.00
2023-02-27T01:23:02.590Z,3.00
2023-02-27T01:23:34.375Z,3.00
2023-02-27T01:24:06.372Z,3.00
2023-02-27T01:24:38.156Z,3.00
2023-02-27T01:25:10.527Z,3.00
2023-02-27T01:25:42.261Z,3.00
2023-02-27T01:26:14.047Z,3.00
2023-02-27T01:26:46.235Z,3.00
2023-02-27T01:27:18.104Z,3.00
2023-02-27T01:27:50.243Z,3.00
2023-02-27T01:28:22.131Z,3.00
2023-02-27T01:28:54.097Z,3.00
2023-02-27T01:29:25.979Z,3.00
2023-02-27T01:29:57.828Z,3.00
2023-02-27T01:30:29.736Z,3.00
2023-02-27T01:31:01.709Z,3.00
2023-02-27T01:31:34.185Z,3.00
2023-02-27T01:32:05.998Z,3.67
2023-02-27T01:32:38.116Z,4.00
2023-02-27T01:33:10.367Z,4.00
2023-02-27T01:33:42.174Z,4.00
2023-02-27T01:34:13.927Z,4.00
2023-02-27T01:34:45.835Z,4.00
2023-02-27T01:35:18.028Z,4.00
2023-02-27T01:35:49.888Z,4.00
2023-02-27T01:36:21.640Z,4.00
2023-02-27T01:36:53.404Z,4.00
2023-02-27T01:37:25.228Z,4.00
2023-02-27T01:37:57.050Z,4.00
2023-02-27T01:38:28.832Z,4.00
2023-02-27T01:39:00.606Z,4.00
2023-02-27T01:39:33.196Z,4.00
2023-02-27T01:40:07.191Z,4.00
2023-02-27T01:40:41.348Z,4.00
2023-02-27T01:41:13.353Z,4.00
2023-02-27T01:41:45.161Z,4.00
2023-02-27T01:42:24.018Z,4.00
2023-02-27T01:42:55.810Z,4.00
2023-02-27T01:43:28.232Z,4.00
2023-02-27T01:44:03.112Z,4.00
2023-02-27T01:45:06.566Z,4.00
2023-02-27T01:45:42.467Z,4.00
2023-02-27T01:46:14.306Z,4.00
2023-02-27T01:46:46.098Z,4.00
2023-02-27T01:47:18.306Z,4.00
2023-02-27T01:47:54.545Z,4.00
2023-02-27T01:48:35.482Z,4.00
2023-02-27T01:49:20.996Z,4.00
2023-02-27T01:49:52.767Z,4.00
2023-02-27T01:50:25.798Z,4.00
2023-02-27T01:50:57.756Z,4.00
2023-02-27T01:51:36.556Z,4.00
2023-02-27T01:52:12.269Z,4.00
2023-02-27T01:52:46.124Z,4.00
2023-02-27T01:53:20.288Z,4.00
2023-02-27T01:53:54.071Z,4.00
2023-02-27T01:54:27.135Z,4.00
2023-02-27T01:54:59.158Z,4.00
2023-02-27T01:55:37.945Z,4.00
2023-02-27T01:56:25.681Z,4.00
2023-02-27T01:56:57.641Z,4.00
2023-02-27T01:57:29.485Z,4.00
2023-02-27T01:58:01.444Z,4.00
2023-02-27T01:58:34.289Z,4.00
2023-02-27T01:59:09.711Z,4.00
2023-02-27T01:59:43.382Z,4.00
2023-02-27T02:00:15.939Z,4.00
2023-02-27T02:00:49.188Z,4.00
2023-02-27T02:01:23.374Z,4.00
2023-02-27T02:01:57.539Z,4.00
2023-02-27T02:02:36.663Z,4.00
2023-02-27T02:03:25.721Z,4.00
2023-02-27T02:04:08.268Z,4.00
2023-02-27T02:04:41.355Z,4.00
2023-02-27T02:05:15.209Z,4.00
2023-02-27T02:05:47.873Z,4.00
2023-02-27T02:06:21.154Z,4.00
2023-02-27T02:07:06.214Z,4.00
2023-02-27T02:07:40.409Z,4.00
2023-02-27T02:08:17.006Z,4.00
2023-02-27T02:08:53.377Z,4.00
2023-02-27T02:09:27.853Z,4.00
2023-02-27T02:10:01.560Z,4.00
2023-02-27T02:10:33.456Z,4.00
2023-02-27T02:11:06.569Z,4.00
2023-02-27T02:11:39.617Z,4.00
2023-02-27T02:12:14.925Z,4.00
2023-02-27T02:12:47.831Z,4.00
2023-02-27T02:13:22.760Z,4.00
2023-02-27T02:13:58.485Z,4.00
2023-02-27T02:14:30.496Z,4.00
2023-02-27T02:15:03.613Z,4.00
2023-02-27T02:15:44.772Z,4.00
2023-02-27T02:16:31.052Z,4.00
2023-02-27T02:17:24.253Z,4.00
2023-02-27T02:18:01.980Z,4.00
2023-02-27T02:18:47.604Z,4.00
2023-02-27T02:19:46.332Z,4.00
2023-02-27T02:20:20.832Z,4.00
2023-02-27T02:21:27.412Z,4.00
2023-02-27T02:22:49.971Z,4.00
2023-02-27T02:23:33.617Z,4.00
2023-02-27T02:24:27.604Z,4.00
2023-02-27T02:25:49.788Z,4.00
2023-02-27T02:26:36.586Z,4.00
2023-02-27T02:27:19.152Z,4.00
2023-02-27T02:28:12.993Z,4.00
2023-02-27T02:29:05.501Z,4.00
2023-02-27T02:29:47.164Z,4.00
2023-02-27T02:30:35.281Z,5.00
2023-02-27T02:31:37.858Z,5.00
2023-02-27T02:32:33.968Z,5.00
2023-02-27T02:33:24.106Z,5.00
2023-02-27T02:34:13.497Z,5.00
2023-02-27T02:35:09.861Z,5.00
2023-02-27T02:35:56.718Z,5.00
2023-02-27T02:37:01.862Z,5.00
2023-02-27T02:38:07.457Z,5.00
2023-02-27T02:39:03.333Z,5.00
2023-02-27T02:39:52.110Z,5.00
2023-02-27T02:40:44.058Z,5.00
2023-02-27T02:41:30.814Z,5.00
2023-02-27T02:42:19.054Z,5.00
2023-02-27T02:43:08.524Z,5.00
2023-02-27T02:44:07.935Z,5.00
2023-02-27T02:44:53.507Z,5.00
2023-02-27T02:45:59.022Z,5.00
2023-02-27T02:46:36.578Z,5.00
2023-02-27T02:47:24.123Z,5.00
2023-02-27T02:48:13.912Z,5.00
2023-02-27T02:49:06.103Z,5.00
2023-02-27T02:49:52.705Z,5.00
2023-02-27T02:50:39.631Z,5.00
2023-02-27T02:51:33.372Z,5.00
2023-02-27T02:52:23.832Z,5.00
2023-02-27T02:53:09.380Z,5.00
2023-02-27T02:53:49.739Z,5.00
2023-02-27T02:54:33.925Z,5.00
2023-02-27T02:55:16.870Z,5.00
2023-02-27T02:56:04.955Z,5.00
2023-02-27T02:57:10.475Z,5.00
2023-02-27T02:58:06.285Z,5.00
2023-02-27T02:59:02.933Z,5.00
2023-02-27T02:59:51.157Z,5.00
2023-02-27T03:00:31.194Z,5.00
2023-02-27T03:01:26.733Z,5.00
2023-02-27T03:02:04.960Z,5.00
2023-02-27T03:02:49.786Z,5.00
2023-02-27T03:03:29.034Z,5.00
2023-02-27T03:04:24.349Z,5.00
2023-02-27T03:05:08.645Z,5.00
2023-02-27T03:05:48.603Z,5.00
2023-02-27T03:06:35.181Z,5.00
2023-02-27T03:07:32.230Z,5.00
2023-02-27T03:08:23.065Z,5.00
2023-02-27T03:09:15.252Z,5.00
2023-02-27T03:09:54.619Z,5.00
2023-02-27T03:10:59.850Z,5.00
2023-02-27T03:11:37.199Z,5.67
2023-02-27T03:12:14.347Z,6.00
2023-02-27T03:12:58.245Z,6.00
2023-02-27T03:13:42.025Z,6.00
2023-02-27T03:14:42.808Z,6.00
2023-02-27T03:15:25.568Z,6.00
2023-02-27T03:16:32.807Z,6.00
2023-02-27T03:17:11.096Z,6.00
2023-02-27T03:17:46.824Z,6.00
2023-02-27T03:18:25.684Z,6.00
2023-02-27T03:19:06.356Z,6.00
2023-02-27T03:19:52.092Z,6.00
2023-02-27T03:20:36.111Z,6.00
2023-02-27T03:21:16.392Z,6.00
2023-02-27T03:21:48.091Z,6.00
2023-02-27T03:22:28.855Z,6.00
2023-02-27T03:23:09.972Z,6.00
2023-02-27T03:23:47.779Z,6.00
2023-02-27T03:24:51.547Z,6.00
2023-02-27T03:25:27.314Z,6.00
2023-02-27T03:26:00.231Z,6.00
2023-02-27T03:26:39.129Z,6.00
2023-02-27T03:27:12.502Z,6.00
2023-02-27T03:27:53.644Z,6.00
2023-02-27T03:28:31.600Z,6.00
2023-02-27T03:29:15.037Z,6.00
2023-02-27T03:30:01.238Z,6.00
2023-02-27T03:30:38.363Z,6.00
2023-02-27T03:31:20.568Z,6.00
2023-02-27T03:32:09.505Z,6.00
2023-02-27T03:32:52.921Z,6.00
2023-02-27T03:33:38.081Z,6.00
2023-02-27T03:34:30.192Z,6.00
2023-02-27T03:35:04.755Z,6.00
2023-02-27T03:35:53.319Z,6.00
2023-02-27T03:36:47.151Z,6.00
2023-02-27T03:37:52.987Z,6.00
2023-02-27T03:38:51.441Z,7.00
2023-02-27T03:39:46.802Z,7.00
2023-02-27T03:40:42.903Z,7.00
2023-02-27T03:41:31.289Z,7.00
2023-02-27T03:42:16.291Z,7.00
2023-02-27T03:43:01.090Z,7.00
2023-02-27T03:43:41.896Z,7.00
2023-02-27T03:44:25.376Z,7.00
2023-02-27T03:45:40.132Z,7.00
2023-02-27T03:46:17.036Z,7.00
2023-02-27T03:46:48.932Z,7.00
2023-02-27T03:47:21.290Z,7.00
2023-02-27T03:47:53.517Z,7.00
2023-02-27T03:48:26.088Z,7.00
2023-02-27T03:48:58.019Z,7.00
2023-02-27T03:49:29.901Z,7.00
2023-02-27T03:50:02.117Z,7.00
2023-02-27T03:50:36.106Z,7.00
2023-02-27T03:51:07.886Z,6.33
2023-02-27T03:51:39.856Z,6.00
2023-02-27T03:52:12.603Z,6.00
2023-02-27T03:52:45.905Z,6.00
2023-02-27T03:53:34.962Z,6.00
2023-02-27T03:54:17.076Z,6.00
2023-02-27T03:55:13.357Z,6.00
2023-02-27T03:55:47.752Z,6.00
2023-02-27T03:56:27.323Z,6.00
2023-02-27T03:57:08.123Z,6.00
2023-02-27T03:57:41.186Z,6.00
2023-02-27T03:58:13.302Z,6.00
2023-02-27T03:58:45.845Z,6.00
2023-02-27T03:59:17.739Z,6.00
2023-02-27T03:59:50.008Z,6.00
2023-02-27T04:00:24.884Z,6.00
2023-02-27T04:00:57.154Z,6.00
2023-02-27T04:01:29.980Z,6.00
2023-02-27T04:02:03.585Z,6.00
2023-02-27T04:02:36.835Z,6.00
2023-02-27T04:03:09.354Z,6.00
2023-02-27T04:03:52.639Z,6.00
2023-02-27T04:04:27.620Z,6.00
2023-02-27T04:04:59.402Z,6.00
2023-02-27T04:05:31.450Z,6.00
2023-02-27T04:06:23.320Z,6.00
2023-02-27T04:07:22.698Z,6.00
2023-02-27T04:08:12.349Z,6.00
2023-02-27T04:09:27.753Z,6.00
2023-02-27T04:10:05.301Z,6.00
2023-02-27T04:10:45.337Z,6.00
2023-02-27T04:11:31.663Z,6.00
2023-02-27T04:12:12.215Z,6.00
2023-02-27T04:13:01.640Z,6.00
2023-02-27T04:13:52.043Z,6.00
2023-02-27T04:14:49.066Z,6.00
2023-02-27T04:15:33.021Z,6.00
2023-02-27T04:16:07.622Z,6.00
2023-02-27T04:16:59.995Z,6.00
2023-02-27T04:17:54.191Z,6.00
2023-02-27T04:19:00.493Z,6.00
2023-02-27T04:19:40.135Z,6.00
2023-02-27T04:20:23.976Z,6.00
2023-02-27T04:21:15.190Z,6.00
2023-02-27T04:22:31.103Z,6.00
2023-02-27T04:23:14.792Z,6.00
2023-02-27T04:24:10.907Z,6.00
2023-02-27T04:24:56.307Z,6.00
2023-02-27T04:25:43.554Z,6.00
2023-02-27T04:26:38.166Z,6.00
2023-02-27T04:27:18.763Z,6.00
2023-02-27T04:28:01.304Z,5.00
2023-02-27T04:29:05.561Z,5.00
2023-02-27T04:29:37.307Z,5.00
2023-02-27T04:30:20.732Z,5.00
2023-02-27T04:31:02.803Z,5.00
2023-02-27T04:32:04.651Z,5.00
2023-02-27T04:32:57.254Z,5.00
2023-02-27T04:33:34.321Z,5.00
2023-02-27T04:34:21.366Z,5.00
2023-02-27T04:35:00.622Z,5.00
2023-02-27T04:35:53.274Z,5.00
2023-02-27T04:36:46.393Z,5.00
2023-02-27T04:37:26.195Z,5.00
2023-02-27T04:38:18.332Z,5.00
2023-02-27T04:39:18.152Z,5.00
2023-02-27T04:39:55.643Z,5.00
2023-02-27T04:40:41.713Z,5.00
2023-02-27T04:41:23.483Z,5.00
2023-02-27T04:42:06.126Z,5.00
2023-02-27T04:42:49.814Z,5.00
2023-02-27T04:43:25.574Z,5.00
2023-02-27T04:43:59.334Z,5.00
2023-02-27T04:44:36.227Z,5.00
2023-02-27T04:45:15.314Z,5.00
2023-02-27T04:45:50.979Z,5.00
2023-02-27T04:46:28.186Z,5.00
2023-02-27T04:47:03.303Z,5.00
2023-02-27T04:47:48.439Z,5.00
2023-02-27T04:48:25.487Z,5.00
2023-02-27T04:49:28.452Z,5.00
2023-02-27T04:50:10.014Z,5.00
2023-02-27T04:50:46.757Z,5.00
2023-02-27T04:51:25.028Z,5.00
2023-02-27T04:52:15.233Z,5.00
2023-02-27T04:52:54.446Z,5.00
2023-02-27T04:53:31.028Z,5.00
2023-02-27T04:54:08.089Z,5.00
2023-02-27T04:54:42.887Z,5.00
2023-02-27T04:55:22.422Z,5.00
2023-02-27T04:56:02.563Z,5.00
2023-02-27T04:56:48.212Z,5.00
2023-02-27T04:57:30.075Z,5.00
2023-02-27T04:58:12.787Z,5.33
2023-02-27T04:58:50.705Z,6.00
2023-02-27T04:59:27.735Z,6.00
2023-02-27T05:00:06.248Z,6.00
2023-02-27T05:00:44.332Z,6.00
2023-02-27T05:01:26.493Z,6.00
2023-02-27T05:02:03.406Z,6.00
2023-02-27T05:02:48.070Z,6.00
2023-02-27T05:03:26.135Z,6.00
2023-02-27T05:04:00.459Z,6.00
2023-02-27T05:04:37.146Z,6.00
2023-02-27T05:05:19.377Z,6.00
2023-02-27T05:05:57.718Z,6.00
2023-02-27T05:06:35.408Z,6.00
2023-02-27T05:07:11.894Z,6.00
2023-02-27T05:07:54.416Z,6.00
2023-02-27T05:08:44.372Z,5.00
2023-02-27T05:09:45.673Z,5.00
2023-02-27T05:10:24.817Z,5.00
2023-02-27T05:11:08.187Z,5.00
2023-02-27T05:11:56.736Z,5.00
2023-02-27T05:12:48.199Z,5.00
2023-02-27T05:13:30.092Z,5.00
2023-02-27T05:14:12.375Z,5.00
2023-02-27T05:15:02.663Z,5.00
2023-02-27T05:15:43.571Z,5.00
2023-02-27T05:16:44.213Z,5.00
2023-02-27T05:17:25.682Z,5.00
2023-02-27T05:18:03.895Z,5.00
2023-02-27T05:18:36.304Z,5.00
2023-02-27T05:19:10.151Z,5.00
2023-02-27T05:19:43.944Z,5.00
2023-02-27T05:20:17.953Z,5.00
2023-02-27T05:21:01.717Z,4.67
2023-02-27T05:21:36.684Z,4.00
2023-02-27T05:22:42.386Z,4.00
2023-02-27T05:23:51.904Z,4.00
2023-02-27T05:24:49.760Z,4.00
2023-02-27T05:25:37.492Z,4.00
2023-02-27T05:26:57.802Z,4.00
2023-02-27T05:27:59.823Z,4.00
2023-02-27T05:28:47.476Z,4.00
2023-02-27T05:29:28.451Z,4.00
2023-02-27T05:30:09.404Z,4.00
2023-02-27T05:30:53.041Z,4.00
2023-02-27T05:31:24.911Z,4.00
2023-02-27T05:32:11.707Z,4.00
2023-02-27T05:32:56.680Z,4.00
2023-02-27T05:33:41.718Z,4.00
2023-02-27T05:34:52.079Z,4.00
2023-02-27T05:35:31.902Z,4.00
2023-02-27T05:36:15.631Z,4.00
2023-02-27T05:37:01.042Z,4.00
2023-02-27T05:37:55.875Z,4.00
2023-02-27T05:38:34.728Z,5.00
2023-02-27T05:39:10.300Z,5.00
2023-02-27T05:39:46.160Z,5.00
2023-02-27T05:40:29.999Z,5.00
2023-02-27T05:41:10.198Z,5.00
2023-02-27T05:41:53.086Z,5.00
2023-02-27T05:42:41.133Z,5.00
2023-02-27T05:43:29.262Z,5.00
2023-02-27T05:44:12.576Z,5.00
2023-02-27T05:44:51.897Z,5.00
2023-02-27T05:45:29.570Z,5.00
2023-02-27T05:46:11.824Z,5.00
2023-02-27T05:46:59.974Z,5.00
2023-02-27T05:47:37.066Z,5.00
2023-02-27T05:48:15.134Z,5.00
2023-02-27T05:49:11.839Z,5.00
2023-02-27T05:49:46.693Z,5.00
2023-02-27T05:50:25.098Z,5.00
2023-02-27T05:50:59.660Z,5.00
2023-02-27T05:51:35.912Z,5.00
2023-02-27T05:52:12.481Z,5.00
2023-02-27T05:52:47.898Z,5.00
2023-02-27T05:53:22.510Z,5.00
2023-02-27T05:54:01.803Z,5.00
2023-02-27T05:54:44.635Z,5.00
2023-02-27T05:55:42.164Z,5.00
2023-02-27T05:56:18.991Z,5.00
2023-02-27T05:56:57.024Z,5.00
2023-02-27T05:58:06.667Z,5.00
2023-02-27T05:58:51.195Z,5.00
2023-02-27T05:59:32.752Z,4.00
2023-02-27T06:00:10.788Z,4.00
2023-02-27T06:01:00.007Z,4.00
2023-02-27T06:01:33.133Z,4.00
2023-02-27T06:02:06.260Z,4.00
2023-02-27T06:02:39.386Z,4.00
2023-02-27T06:03:12.411Z,4.00
2023-02-27T06:03:44.345Z,4.00
2023-02-27T06:04:16.394Z,4.00
2023-02-27T06:04:48.325Z,4.00
2023-02-27T06:05:20.256Z,4.00
2023-02-27T06:05:55.359Z,4.00
2023-02-27T06:06:27.460Z,4.00
2023-02-27T06:06:59.484Z,4.00
2023-02-27T06:07:32.695Z,4.00
2023-02-27T06:08:04.525Z,4.00
2023-02-27T06:08:36.391Z,4.00
2023-02-27T06:09:09.452Z,4.00
2023-02-27T06:09:44.265Z,4.00
2023-02-27T06:10:19.600Z,4.00
2023-02-27T06:10:51.627Z,4.00
2023-02-27T06:11:23.361Z,4.00
2023-02-27T06:11:55.288Z,4.00
2023-02-27T06:12:27.069Z,4.00
2023-02-27T06:12:58.875Z,4.00
2023-02-27T06:13:30.717Z,4.00
2023-02-27T06:14:03.419Z,4.00
2023-02-27T06:14:35.232Z,4.00
2023-02-27T06:15:07.731Z,4.00
2023-02-27T06:15:39.509Z,3.67
2023-02-27T06:16:13.779Z,3.67
2023-02-27T06:16:46.140Z,4.00
2023-02-27T06:17:18.303Z,4.00
2023-02-27T06:17:50.351Z,4.00
2023-02-27T06:18:23.075Z,4.00
2023-02-27T06:18:55.582Z,4.00
2023-02-27T06:19:27.412Z,4.00
2023-02-27T06:19:59.375Z,4.00
2023-02-27T06:20:31.306Z,4.00
2023-02-27T06:21:04.087Z,4.00
2023-02-27T06:21:35.884Z,4.00
2023-02-27T06:22:07.829Z,4.00
2023-02-27T06:22:40.294Z,4.00
2023-02-27T06:23:12.642Z,4.00
2023-02-27T06:23:44.449Z,4.00
2023-02-27T06:24:16.500Z,4.00
2023-02-27T06:24:48.608Z,4.00
2023-02-27T06:25:22.224Z,4.00
2023-02-27T06:25:54.201Z,4.00
2023-02-27T06:26:26.680Z,4.00
2023-02-27T06:26:58.514Z,4.00
2023-02-27T06:27:30.411Z,4.00
2023-02-27T06:28:02.818Z,4.00
2023-02-27T06:28:34.597Z,4.00
2023-02-27T06:29:06.350Z,4.00
2023-02-27T06:29:38.162Z,4.00
2023-02-27T06:30:10.523Z,4.00
2023-02-27T06:30:43.918Z,4.00
2023-02-27T06:31:16.695Z,4.00
2023-02-27T06:31:48.532Z,4.00
2023-02-27T06:32:21.969Z,4.00
2023-02-27T06:32:54.065Z,4.00
2023-02-27T06:33:26.485Z,4.00
2023-02-27T06:33:58.263Z,4.00
2023-02-27T06:34:30.030Z,4.00
2023-02-27T06:35:02.121Z,4.00
2023-02-27T06:35:34.058Z,4.00
2023-02-27T06:36:06.106Z,4.00
2023-02-27T06:36:37.947Z,4.00
2023-02-27T06:37:09.715Z,4.00
2023-02-27T06:37:41.478Z,4.00
2023-02-27T06:38:13.253Z,4.00
2023-02-27T06:38:44.962Z,4.00
2023-02-27T06:39:16.917Z,4.00
2023-02-27T06:39:48.722Z,4.00
2023-02-27T06:40:20.536Z,4.00
2023-02-27T06:40:52.396Z,4.00
2023-02-27T06:41:24.152Z,4.00
2023-02-27T06:41:55.969Z,4.00
2023-02-27T06:42:28.059Z,4.00
2023-02-27T06:42:59.845Z,4.00
2023-02-27T06:43:34.806Z,4.00
2023-02-27T06:44:06.634Z,4.00
2023-02-27T06:44:38.356Z,4.00
2023-02-27T06:45:12.152Z,4.00
2023-02-27T06:45:43.951Z,4.00
2023-02-27T06:46:15.855Z,4.00
2023-02-27T06:46:47.697Z,4.00
2023-02-27T06:47:19.453Z,4.00
2023-02-27T06:47:51.241Z,4.00
2023-02-27T06:48:23.194Z,4.00
2023-02-27T06:48:54.960Z,4.00
2023-02-27T06:49:26.749Z,4.00
2023-02-27T06:49:58.882Z,4.00
2023-02-27T06:50:30.727Z,4.00
2023-02-27T06:51:03.672Z,4.00
2023-02-27T06:51:35.524Z,4.00
2023-02-27T06:52:07.721Z,4.00
2023-02-27T06:52:40.239Z,4.00
2023-02-27T06:53:12.030Z,4.00
2023-02-27T06:53:43.772Z,4.00
2023-02-27T06:54:15.655Z,4.00
2023-02-27T06:54:47.456Z,4.00
2023-02-27T06:55:21.020Z,4.00
2023-02-27T06:55:52.942Z,4.00
2023-02-27T06:56:25.038Z,4.00
2023-02-27T06:56:56.945Z,4.00
2023-02-27T06:57:28.751Z,4.00
2023-02-27T06:58:00.524Z,4.00
2023-02-27T06:58:32.335Z,4.00
2023-02-27T06:59:04.080Z,4.00
2023-02-27T06:59:35.812Z,4.00
2023-02-27T07:00:08.447Z,4.00
2023-02-27T07:00:40.226Z,4.00
2023-02-27T07:01:13.525Z,4.00
2023-02-27T07:01:45.436Z,3.00
2023-02-27T07:02:18.492Z,3.00
2023-02-27T07:02:50.489Z,3.00
2023-02-27T07:03:22.335Z,3.00
2023-02-27T07:03:54.130Z,3.00
2023-02-27T07:04:26.040Z,3.00
2023-02-27T07:04:57.996Z,3.00
2023-02-27T07:05:30.020Z,3.00
2023-02-27T07:06:02.595Z,3.00
2023-02-27T07:07:33.976Z,3.00
2023-02-27T07:07:36.368Z,3.00
2023-02-27T07:08:10.187Z,3.00
2023-02-27T07:09:00.867Z,3.00
2023-02-27T07:09:34.152Z,3.00
2023-02-27T07:10:08.887Z,3.00
2023-02-27T07:10:44.058Z,3.00
2023-02-27T07:11:15.918Z,3.00
2023-02-27T07:11:47.727Z,3.00
2023-02-27T07:12:19.512Z,3.00
2023-02-27T07:12:51.327Z,3.00
2023-02-27T07:13:23.474Z,3.00
2023-02-27T07:13:55.313Z,3.00
2023-02-27T07:14:27.103Z,3.00
2023-02-27T07:14:59.073Z,3.00
2023-02-27T07:15:30.784Z,3.00
2023-02-27T07:16:02.626Z,3.00
2023-02-27T07:16:34.672Z,3.00
2023-02-27T07:17:06.446Z,3.00
2023-02-27T07:17:38.353Z,3.00
2023-02-27T07:18:10.426Z,3.00
2023-02-27T07:18:42.247Z,3.00
2023-02-27T07:19:14.329Z,3.00
2023-02-27T07:19:46.051Z,3.00
2023-02-27T07:20:17.974Z,3.00
2023-02-27T07:20:51.460Z,3.00
2023-02-27T07:21:23.246Z,3.00
2023-02-27T07:21:55.010Z,3.00
2023-02-27T07:22:27.262Z,3.00
2023-02-27T07:22:59.094Z,3.00
2023-02-27T07:23:31.129Z,3.00
2023-02-27T07:24:04.914Z,3.00
2023-02-27T07:24:37.116Z,3.00
2023-02-27T07:25:09.694Z,3.00
2023-02-27T07:25:41.472Z,3.00
2023-02-27T07:26:14.355Z,3.00
2023-02-27T07:26:46.142Z,3.00
2023-02-27T07:27:17.931Z,3.00
2023-02-27T07:27:50.939Z,3.00
2023-02-27T07:28:22.850Z,3.00
2023-02-27T07:28:54.964Z,3.00
2023-02-27T07:29:27.219Z,3.00
2023-02-27T07:29:59.022Z,3.00
2023-02-27T07:30:30.979Z,3.00
2023-02-27T07:31:02.856Z,3.00
2023-02-27T07:31:34.669Z,2.00
2023-02-27T07:32:06.633Z,2.00
2023-02-27T07:32:38.544Z,2.00
2023-02-27T07:33:10.351Z,2.00
2023-02-27T07:33:42.254Z,2.00
2023-02-27T07:34:15.682Z,2.00
2023-02-27T07:34:47.542Z,2.00
2023-02-27T07:35:19.601Z,2.00
2023-02-27T07:35:52.077Z,2.00
2023-02-27T07:36:24.616Z,2.00
2023-02-27T07:36:56.537Z,2.00
2023-02-27T07:37:29.335Z,2.00
2023-02-27T07:38:01.098Z,2.00
2023-02-27T07:38:32.882Z,2.00
2023-02-27T07:39:05.981Z,2.00
2023-02-27T07:39:37.944Z,2.00
2023-02-27T07:40:10.626Z,2.00
2023-02-27T07:40:42.487Z,2.00
2023-02-27T07:41:29.567Z,2.00
2023-02-27T07:42:02.637Z,2.00
2023-02-27T07:42:35.438Z,1.33
2023-02-27T07:43:07.143Z,1.00
2023-02-27T07:43:38.948Z,1.00
2023-02-27T07:44:11.338Z,1.00
2023-02-27T07:44:43.080Z,1.00
2023-02-27T07:45:15.340Z,1.00
2023-02-27T07:45:47.216Z,1.00
2023-02-27T07:46:19.252Z,1.00
2023-02-27T07:46:51.080Z,1.00
2023-02-27T07:47:22.884Z,1.00
2023-02-27T07:47:54.880Z,1.00
2023-02-27T07:48:26.759Z,1.00
2023-02-27T07:48:58.530Z,1.00
2023-02-27T07:49:30.272Z,1.00
2023-02-27T07:50:02.159Z,1.00
2023-02-27T07:50:34.458Z,1.00
2023-02-27T07:51:07.088Z,1.00
2023-02-27T07:51:39.268Z,1.00
2023-02-27T07:52:11.415Z,1.00
2023-02-27T07:52:44.439Z,1.00
2023-02-27T07:53:16.295Z,1.00
2023-02-27T07:53:48.146Z,1.00
2023-02-27T07:54:20.086Z,1.00
2023-02-27T07:54:51.879Z,1.00
2023-02-27T07:55:23.642Z,1.00
2023-02-27T07:55:55.465Z,1.00
2023-02-27T07:56:27.792Z,1.00
2023-02-27T07:56:59.928Z,1.00
2023-02-27T07:57:31.857Z,1.00
2023-02-27T07:58:03.587Z,1.00
2023-02-27T07:58:35.383Z,1.00
2023-02-27T07:59:07.242Z,1.00
2023-02-27T07:59:39.127Z,1.00
2023-02-27T08:00:11.990Z,1.00
2023-02-27T08:00:44.236Z,1.00
2023-02-27T08:01:16.058Z,1.00
2023-02-27T08:01:47.828Z,1.00
2023-02-27T08:02:19.751Z,1.00
2023-02-27T08:02:51.576Z,1.00
2023-02-27T08:03:23.459Z,1.00
2023-02-27T08:03:56.615Z,1.00
2023-02-27T08:04:28.448Z,1.00
2023-02-27T08:05:00.314Z,1.00
2023-02-27T08:05:32.062Z,1.00
2023-02-27T08:06:03.896Z,1.00
2023-02-27T08:06:35.704Z,1.00
2023-02-27T08:07:08.217Z,1.00
2023-02-27T08:07:40.063Z,1.00
2023-02-27T08:08:11.880Z,1.00
2023-02-27T08:08:43.752Z,1.00
2023-02-27T08:09:16.722Z,1.00
2023-02-27T08:09:48.435Z,1.00
2023-02-27T08:10:20.617Z,1.00
2023-02-27T08:10:52.437Z,1.00
2023-02-27T08:11:24.373Z,1.00
2023-02-27T08:11:58.434Z,1.00
2023-02-27T08:12:30.185Z,1.00
2023-02-27T08:13:02.040Z,1.00
2023-02-27T08:14:02.601Z,1.00
2023-02-27T08:14:25.613Z,1.00
2023-02-27T08:14:57.354Z,1.00
2023-02-27T08:15:29.122Z,1.00
2023-02-27T08:16:00.923Z,1.00
2023-02-27T08:16:33.385Z,1.00
2023-02-27T08:17:05.403Z,1.00